Time;durP1;ratioP1;P1;durP2;ratioP2;P2;SDS_P1;SDS_P2;PMS_P1;PMS_P2;Temp;Humidity;BMP_temperature;BMP_pressure;BME280_temperature;BME280_humidity;BME280_pressure;Samples;Min_cycle;Max_cycle;Signal;HPM_P1;HPM_P2
2022/01/06 00:01:28;;;;;;;23.20;5.20;;;26.10;75.30;;;;;;5065860;28;20183;-76
2022/01/06 00:03:56;;;;;;;25.73;4.97;;;26.10;75.50;;;;;;5073283;28;20190;-75
2022/01/06 00:06:24;;;;;;;30.13;5.47;;;26.70;73.40;;;;;;5070177;28;20195;-77
2022/01/06 00:08:54;;;;;;;32.10;5.63;;;26.70;73.30;;;;;;5070369;28;20285;-81
2022/01/06 00:11:22;;;;;;;21.83;4.63;;;26.40;73.80;;;;;;5071861;28;20273;-72
2022/01/06 00:13:56;;;;;;;31.83;5.47;;;26.70;73.20;;;;;;5069257;28;20697;-76
2022/01/06 00:16:36;;;;;;;28.47;5.60;;;26.90;72.00;;;;;;5071617;28;20186;-79
2022/01/06 00:24:23;;;;;;;23.27;4.57;;;27.20;71.20;;;;;;5077114;28;20218;-81
2022/01/06 00:26:51;;;;;;;29.17;6.73;;;26.90;71.30;;;;;;5071978;28;20183;-73
2022/01/06 00:29:20;;;;;;;23.93;4.47;;;27.00;71.40;;;;;;5071677;28;20207;-74
2022/01/06 00:31:47;;;;;;;32.97;6.53;;;27.10;72.10;;;;;;5064436;28;20700;-81
2022/01/06 00:34:15;;;;;;;33.50;6.40;;;26.90;72.00;;;;;;5073232;28;20186;-80
2022/01/06 00:36:43;;;;;;;32.43;5.10;;;26.70;75.40;;;;;;5070050;28;20581;-83
2022/01/06 00:39:12;;;;;;;31.83;4.87;;;26.90;72.40;;;;;;5067622;28;20202;-74
2022/01/06 00:41:42;;;;;;;30.23;5.17;;;27.40;70.50;;;;;;5066296;28;20199;-77
2022/01/06 00:44:09;;;;;;;29.97;11.33;;;27.80;69.50;;;;;;5072369;28;20571;-76
2022/01/06 00:46:37;;;;;;;27.63;5.43;;;28.00;68.30;;;;;;5074217;28;20240;-79
2022/01/06 00:49:05;;;;;;;27.63;5.37;;;28.40;67.20;;;;;;5067807;28;20257;-75
2022/01/06 00:51:32;;;;;;;20.90;4.37;;;28.40;67.60;;;;;;5072736;28;20261;-75
2022/01/06 00:54:00;;;;;;;23.37;4.97;;;28.60;66.70;;;;;;5070152;28;20175;-74
2022/01/06 00:56:27;;;;;;;30.97;6.70;;;28.40;67.00;;;;;;5096301;28;20316;-76
2022/01/06 00:58:55;;;;;;;20.83;4.40;;;28.30;66.30;;;;;;5073908;28;20175;-74
2022/01/06 01:01:22;;;;;;;25.03;4.37;;;28.40;65.30;;;;;;5067443;28;20171;-82
2022/01/06 01:03:50;;;;;;;22.20;4.43;;;28.60;65.50;;;;;;5070449;28;20184;-77
2022/01/06 01:06:17;;;;;;;24.73;5.13;;;28.60;64.90;;;;;;5075401;28;20182;-77
2022/01/06 01:08:45;;;;;;;20.30;4.27;;;28.40;65.00;;;;;;5074264;28;20575;-79
2022/01/06 01:11:12;;;;;;;22.83;4.73;;;28.40;65.20;;;;;;5074246;28;20220;-78
2022/01/06 01:13:56;;;;;;;23.23;4.47;;;28.30;65.80;;;;;;5075137;28;20172;-77
2022/01/06 01:16:31;;;;;;;27.87;5.03;;;28.50;65.30;;;;;;5071122;28;20175;-77
2022/01/06 01:19:10;;;;;;;30.63;5.30;;;28.50;65.40;;;;;;5076740;28;20186;-82
2022/01/06 01:21:37;;;;;;;22.27;4.77;;;28.90;64.30;;;;;;5070615;28;20190;-80
2022/01/06 01:24:05;;;;;;;28.47;5.13;;;29.00;63.00;;;;;;5073076;28;20652;-74
2022/01/06 01:26:32;;;;;;;25.80;4.70;;;28.80;63.60;;;;;;5074865;28;20597;-76
2022/01/06 01:29:00;;;;;;;24.33;5.23;;;28.90;62.40;;;;;;5074180;28;20244;-76
2022/01/06 01:31:32;;;;;;;24.33;4.93;;;29.10;63.00;;;;;;5064857;28;20225;-75
2022/01/06 01:34:06;;;;;;;22.70;4.70;;;29.10;62.00;;;;;;5072154;28;20208;-79
2022/01/06 01:36:34;;;;;;;19.73;4.30;;;29.00;62.00;;;;;;5066877;28;20183;-72
2022/01/06 01:39:01;;;;;;;24.17;4.20;;;29.10;61.80;;;;;;5071254;28;20198;-76
2022/01/06 01:41:31;;;;;;;24.03;4.57;;;29.20;61.00;;;;;;5066417;28;20184;-74
2022/01/06 01:43:59;;;;;;;28.60;4.40;;;28.80;62.10;;;;;;5075560;28;20174;-72
2022/01/06 01:46:30;;;;;;;23.80;4.43;;;29.30;62.10;;;;;;5075844;28;20190;-75
2022/01/06 01:49:28;;;;;;;21.60;4.10;;;29.60;60.70;;;;;;5074557;28;20670;-78
2022/01/06 01:51:55;;;;;;;19.67;3.93;;;29.20;61.50;;;;;;5073031;28;20206;-73
2022/01/06 01:54:23;;;;;;;18.73;4.13;;;28.90;61.70;;;;;;5066755;28;20187;-77
2022/01/06 01:56:52;;;;;;;25.13;4.60;;;28.80;63.00;;;;;;5073570;28;20176;-76
2022/01/06 01:59:19;;;;;;;30.07;5.17;;;28.50;64.00;;;;;;5072251;28;20171;-78
2022/01/06 02:01:46;;;;;;;19.37;4.87;;;28.20;65.60;;;;;;5071247;28;20602;-75
2022/01/06 02:04:14;;;;;;;21.87;4.33;;;27.80;66.00;;;;;;5078451;28;20183;-74
2022/01/06 02:06:41;;;;;;;24.63;5.13;;;27.60;69.90;;;;;;5071486;28;20182;-73
2022/01/06 02:09:09;;;;;;;24.23;4.37;;;27.60;68.60;;;;;;5071400;28;20215;-74
2022/01/06 02:11:36;;;;;;;25.10;4.20;;;27.60;67.70;;;;;;5068486;28;20190;-74
2022/01/06 02:14:06;;;;;;;31.20;5.90;;;27.10;67.70;;;;;;5073062;28;20519;-74
2022/01/06 02:16:34;;;;;;;27.60;4.03;;;27.10;67.30;;;;;;5070156;28;20229;-77
2022/01/06 02:19:02;;;;;;;29.47;5.10;;;27.30;66.70;;;;;;5068562;28;20642;-74
2022/01/06 02:21:29;;;;;;;21.27;4.93;;;27.70;66.40;;;;;;5072444;28;20236;-74
2022/01/06 02:23:56;;;;;;;27.30;4.90;;;28.20;64.90;;;;;;5066825;28;20638;-73
2022/01/06 02:26:24;;;;;;;22.13;5.53;;;28.70;63.60;;;;;;5078680;28;20239;-73
2022/01/06 02:28:51;;;;;;;26.23;4.53;;;29.30;61.60;;;;;;5075759;28;20211;-75
2022/01/06 02:31:20;;;;;;;24.00;5.10;;;29.30;61.10;;;;;;5072895;28;20645;-81
2022/01/06 02:33:49;;;;;;;24.07;4.53;;;28.90;62.10;;;;;;5070873;28;20648;-76
2022/01/06 02:36:16;;;;;;;28.70;5.43;;;28.90;62.40;;;;;;5071054;28;20194;-78
2022/01/06 02:38:44;;;;;;;23.30;5.07;;;28.90;62.10;;;;;;5069746;28;20235;-76
2022/01/06 02:41:12;;;;;;;22.37;4.73;;;28.90;62.80;;;;;;5074184;28;20190;-74
2022/01/06 02:43:39;;;;;;;28.83;4.80;;;29.30;62.30;;;;;;5076851;28;20271;-76
2022/01/06 02:46:06;;;;;;;24.83;4.83;;;28.90;63.00;;;;;;5064693;28;20642;-80
2022/01/06 02:48:34;;;;;;;24.97;4.27;;;28.60;63.90;;;;;;5074170;28;20277;-77
2022/01/06 02:51:05;;;;;;;21.67;4.37;;;28.80;63.10;;;;;;5071463;28;20188;-81
2022/01/06 02:53:32;;;;;;;21.43;4.43;;;28.90;63.00;;;;;;5073076;28;20180;-75
2022/01/06 02:56:00;;;;;;;28.23;5.07;;;29.30;61.90;;;;;;5072622;28;20183;-78
2022/01/06 02:58:27;;;;;;;31.53;5.10;;;28.90;63.30;;;;;;5073381;28;20179;-75
2022/01/06 03:00:55;;;;;;;32.27;5.13;;;29.10;63.20;;;;;;5072628;28;20191;-81
2022/01/06 03:03:22;;;;;;;21.00;5.07;;;29.60;62.70;;;;;;5059240;28;20278;-77
2022/01/06 03:05:49;;;;;;;22.83;4.37;;;29.50;61.70;;;;;;5072148;28;20194;-78
2022/01/06 03:08:19;;;;;;;23.60;4.63;;;29.80;61.40;;;;;;5072360;28;20238;-80
2022/01/06 03:10:46;;;;;;;24.57;4.83;;;29.20;61.20;;;;;;5066838;28;20215;-81
2022/01/06 03:13:13;;;;;;;19.97;4.27;;;29.30;61.50;;;;;;5069892;28;20240;-81
2022/01/06 03:15:41;;;;;;;22.90;4.77;;;28.90;63.00;;;;;;5068530;28;20198;-80
2022/01/06 03:18:08;;;;;;;21.00;4.37;;;29.40;62.00;;;;;;5065603;28;20205;-79
2022/01/06 03:20:35;;;;;;;20.90;4.27;;;29.90;60.20;;;;;;5070841;28;20210;-78
2022/01/06 03:23:06;;;;;;;21.20;4.37;;;29.80;60.20;;;;;;5071023;28;20235;-77
2022/01/06 03:25:33;;;;;;;24.67;5.33;;;29.30;61.70;;;;;;5066391;28;20186;-76
2022/01/06 03:28:01;;;;;;;26.13;4.13;;;29.10;62.70;;;;;;5071530;28;20179;-83
2022/01/06 03:30:31;;;;;;;22.70;4.67;;;29.00;62.70;;;;;;5068723;28;20222;-77
2022/01/06 03:32:58;;;;;;;25.87;4.13;;;29.30;63.00;;;;;;5066969;28;20258;-76
2022/01/06 03:35:29;;;;;;;20.13;3.90;;;28.80;62.70;;;;;;5072071;28;20201;-77
2022/01/06 03:37:56;;;;;;;28.67;4.90;;;28.60;64.20;;;;;;5066640;28;20227;-80
2022/01/06 03:40:23;;;;;;;18.47;4.47;;;28.40;64.30;;;;;;5070365;28;20528;-75
2022/01/06 03:42:51;;;;;;;23.80;4.37;;;29.20;63.40;;;;;;5072405;28;20187;-77
2022/01/06 03:45:20;;;;;;;25.70;4.87;;;29.30;62.10;;;;;;5071697;27;20193;-75
2022/01/06 03:47:48;;;;;;;22.70;4.67;;;29.40;61.80;;;;;;5064799;28;20594;-72
2022/01/06 03:50:16;;;;;;;24.87;5.40;;;28.80;63.30;;;;;;5071871;28;20248;-78
2022/01/06 03:52:44;;;;;;;31.80;5.13;;;28.40;64.70;;;;;;5070344;28;20186;-81
2022/01/06 03:55:15;;;;;;;25.77;4.63;;;28.80;65.00;;;;;;5071281;28;20196;-74
2022/01/06 03:57:43;;;;;;;25.60;4.43;;;29.20;61.90;;;;;;5069233;28;20209;-74
2022/01/06 04:00:14;;;;;;;21.10;4.40;;;29.50;61.00;;;;;;5066141;28;20198;-77
2022/01/06 04:02:42;;;;;;;23.17;5.20;;;29.40;60.50;;;;;;5070632;28;20324;-79
2022/01/06 04:05:10;;;;;;;21.67;4.67;;;28.90;61.90;;;;;;5071615;28;20191;-74
2022/01/06 04:07:38;;;;;;;24.27;4.60;;;28.60;62.90;;;;;;5066754;28;20194;-85
2022/01/06 04:10:09;;;;;;;32.50;5.53;;;28.30;63.90;;;;;;5069889;28;20558;-76
2022/01/06 04:12:37;;;;;;;19.80;4.67;;;28.40;63.50;;;;;;5063187;28;20191;-82
2022/01/06 04:15:12;;;;;;;31.23;4.97;;;28.40;63.20;;;;;;5069650;28;20194;-75
2022/01/06 04:17:43;;;;;;;23.90;5.47;;;28.00;64.60;;;;;;5093282;28;20178;-76
2022/01/06 04:20:12;;;;;;;26.97;4.60;;;28.40;63.90;;;;;;5068813;28;20187;-76
2022/01/06 04:22:40;;;;;;;24.27;4.77;;;28.30;64.00;;;;;;5067683;28;20206;-77
2022/01/06 04:25:08;;;;;;;25.80;5.10;;;28.70;62.90;;;;;;5068941;28;20175;-78
2022/01/06 04:27:35;;;;;;;24.20;4.90;;;29.00;61.30;;;;;;5065967;28;20527;-78
2022/01/06 04:30:09;;;;;;;22.87;4.07;;;28.20;63.30;;;;;;5066529;28;20226;-80
2022/01/06 04:32:36;;;;;;;31.90;4.37;;;27.70;64.90;;;;;;5066934;28;20236;-78
2022/01/06 04:35:06;;;;;;;27.53;4.70;;;27.40;65.80;;;;;;5067210;28;20219;-78
2022/01/06 04:37:34;;;;;;;24.63;4.07;;;27.40;66.60;;;;;;5068507;28;20226;-78
2022/01/06 04:40:01;;;;;;;28.83;4.47;;;27.40;66.00;;;;;;5069814;28;20683;-78
2022/01/06 04:42:29;;;;;;;24.73;4.67;;;27.20;67.50;;;;;;5062397;28;20179;-81
2022/01/06 04:44:56;;;;;;;24.27;4.47;;;27.20;67.60;;;;;;5069073;28;20183;-75
2022/01/06 04:47:24;;;;;;;29.93;5.10;;;27.30;67.20;;;;;;5069470;28;20328;-76
2022/01/06 04:49:51;;;;;;;23.93;4.30;;;27.70;66.00;;;;;;5064210;28;20223;-81
2022/01/06 04:52:19;;;;;;;28.40;5.43;;;27.70;66.10;;;;;;5071146;28;20187;-79
2022/01/06 04:54:46;;;;;;;29.40;5.37;;;28.10;64.50;;;;;;5071089;28;20645;-81
2022/01/06 04:57:13;;;;;;;23.03;5.03;;;28.20;64.70;;;;;;5070736;28;20276;-79
2022/01/06 04:59:41;;;;;;;23.03;4.87;;;28.00;64.60;;;;;;5065505;28;20262;-77
2022/01/06 05:02:09;;;;;;;24.63;5.07;;;27.90;64.80;;;;;;5065799;28;20549;-75
2022/01/06 05:04:36;;;;;;;19.47;5.17;;;28.40;63.20;;;;;;5063337;28;20187;-80
2022/01/06 05:07:04;;;;;;;20.93;4.77;;;28.80;62.20;;;;;;5070956;28;20265;-82
2022/01/06 05:09:31;;;;;;;24.93;4.63;;;29.10;60.70;;;;;;5059610;28;20199;-79
2022/01/06 05:11:59;;;;;;;26.63;4.45;;;28.90;60.80;;;;;;5070914;28;20206;-77
2022/01/06 05:14:26;;;;;;;23.60;4.13;;;28.90;61.10;;;;;;5072998;28;20270;-80
2022/01/06 05:16:56;;;;;;;24.67;4.33;;;29.20;60.40;;;;;;5063691;28;20263;-78
2022/01/06 05:19:24;;;;;;;17.83;4.13;;;28.40;62.40;;;;;;5070531;28;20191;-83
2022/01/06 05:21:52;;;;;;;25.60;5.03;;;28.60;62.60;;;;;;5071325;28;20269;-82
2022/01/06 05:24:20;;;;;;;27.27;5.13;;;28.30;63.60;;;;;;5064218;28;20187;-78
2022/01/06 05:26:49;;;;;;;23.17;6.17;;;28.10;64.20;;;;;;5068964;28;20226;-78
2022/01/06 05:29:17;;;;;;;31.80;4.83;;;28.30;64.60;;;;;;5081134;28;20226;-80
2022/01/06 05:31:44;;;;;;;23.93;4.17;;;28.00;64.50;;;;;;5071039;28;20626;-77
2022/01/06 05:34:12;;;;;;;26.87;4.50;;;27.50;66.50;;;;;;5073482;28;20733;-80
2022/01/06 05:36:40;;;;;;;22.73;4.13;;;27.90;65.80;;;;;;5068565;28;20313;-83
2022/01/06 05:39:08;;;;;;;22.90;4.23;;;29.20;61.70;;;;;;5068925;28;20188;-80
2022/01/06 05:41:35;;;;;;;20.07;4.43;;;28.80;63.20;;;;;;5070521;28;20210;-80
2022/01/06 05:44:03;;;;;;;27.05;4.78;;;28.80;62.80;;;;;;5073271;28;20184;-78
2022/01/06 05:46:30;;;;;;;21.83;5.07;;;29.00;62.90;;;;;;5071866;28;20254;-77
2022/01/06 05:49:04;;;;;;;34.43;4.83;;;29.30;62.50;;;;;;5073250;28;20242;-73
2022/01/06 05:51:32;;;;;;;27.90;6.20;;;28.70;64.10;;;;;;5074104;28;20191;-73
2022/01/06 05:53:59;;;;;;;26.47;4.97;;;28.00;66.30;;;;;;5072546;28;20229;-82
2022/01/06 05:56:27;;;;;;;33.00;5.97;;;27.30;70.00;;;;;;5073009;28;20676;-78
2022/01/06 05:58:55;;;;;;;24.67;5.03;;;27.80;68.80;;;;;;5076173;28;20183;-73
2022/01/06 06:01:22;;;;;;;26.07;4.80;;;27.80;68.20;;;;;;5072211;28;20213;-77
2022/01/06 06:03:50;;;;;;;33.23;5.20;;;27.30;69.30;;;;;;5079067;28;20171;-78
2022/01/06 06:06:17;;;;;;;26.50;5.07;;;27.80;68.10;;;;;;5074966;28;20223;-77
2022/01/06 06:08:45;;;;;;;28.83;5.43;;;27.70;68.20;;;;;;5071084;28;20211;-76
2022/01/06 06:11:13;;;;;;;27.57;5.47;;;27.30;69.40;;;;;;5073517;28;20940;-77
2022/01/06 06:13:40;;;;;;;40.10;5.83;;;27.30;69.50;;;;;;5073799;28;20214;-78
2022/01/06 06:16:07;;;;;;;27.37;4.73;;;27.30;69.90;;;;;;5077784;28;20193;-78
2022/01/06 06:18:35;;;;;;;31.03;6.07;;;27.30;69.70;;;;;;5071422;28;20209;-76
2022/01/06 06:21:02;;;;;;;20.97;4.97;;;27.10;70.20;;;;;;5071966;28;20183;-77
2022/01/06 06:23:30;;;;;;;29.90;5.53;;;27.40;68.90;;;;;;5070728;28;20184;-75
2022/01/06 06:25:58;;;;;;;27.63;5.23;;;28.30;65.80;;;;;;5072917;28;20211;-77
2022/01/06 06:28:25;;;;;;;29.53;5.10;;;27.30;69.60;;;;;;5069534;28;20190;-78
2022/01/06 06:30:53;;;;;;;24.90;5.17;;;27.10;70.50;;;;;;5070205;28;20215;-78
2022/01/06 06:33:20;;;;;;;21.27;3.80;;;28.30;66.20;;;;;;5094017;28;20179;-75
2022/01/06 06:35:47;;;;;;;27.00;4.93;;;27.80;65.10;;;;;;5065423;28;20195;-82
2022/01/06 06:38:15;;;;;;;24.00;4.87;;;27.60;66.80;;;;;;5071504;28;20725;-74
2022/01/06 06:40:42;;;;;;;25.97;5.50;;;27.30;68.60;;;;;;5066478;28;20191;-77
2022/01/06 06:43:13;;;;;;;29.90;6.03;;;27.30;69.10;;;;;;5070511;28;20187;-74
2022/01/06 06:45:42;;;;;;;45.93;6.83;;;27.30;69.40;;;;;;5075920;28;20183;-82
2022/01/06 06:48:11;;;;;;;23.77;5.00;;;27.20;69.40;;;;;;5070517;28;20270;-78
2022/01/06 06:50:38;;;;;;;29.13;5.23;;;26.80;70.30;;;;;;5070766;28;20233;-78
2022/01/06 06:53:07;;;;;;;21.67;5.00;;;26.70;70.50;;;;;;5076045;28;20180;-78
2022/01/06 06:55:35;;;;;;;34.37;5.30;;;27.10;69.40;;;;;;5076848;28;20179;-77
2022/01/06 06:58:03;;;;;;;39.53;5.97;;;26.70;70.20;;;;;;5068541;28;20679;-78
2022/01/06 07:00:30;;;;;;;30.60;5.90;;;27.00;69.40;;;;;;5069191;28;20241;-80
2022/01/06 07:02:57;;;;;;;27.63;4.70;;;27.80;66.60;;;;;;5069448;28;20657;-77
2022/01/06 07:05:25;;;;;;;21.20;4.17;;;28.10;66.10;;;;;;5070216;28;20596;-75
2022/01/06 07:07:52;;;;;;;36.17;5.37;;;28.40;64.80;;;;;;5070938;28;20187;-74
2022/01/06 07:10:20;;;;;;;27.50;5.50;;;28.20;65.50;;;;;;5068268;28;20199;-79
2022/01/06 07:12:47;;;;;;;25.03;5.37;;;27.30;67.50;;;;;;5071412;28;20189;-75
2022/01/06 07:15:17;;;;;;;27.30;5.63;;;26.90;69.10;;;;;;5075007;28;20203;-76
2022/01/06 07:17:44;;;;;;;36.23;4.70;;;26.50;70.00;;;;;;5075471;28;20187;-75
2022/01/06 07:20:12;;;;;;;23.03;4.67;;;26.30;70.20;;;;;;5070605;28;20755;-79
2022/01/06 07:22:40;;;;;;;21.17;4.30;;;26.20;70.60;;;;;;5073922;28;20551;-78
2022/01/06 07:25:08;;;;;;;27.93;5.00;;;26.20;70.80;;;;;;5070470;28;20308;-76
2022/01/06 07:27:35;;;;;;;34.70;5.83;;;26.20;71.00;;;;;;5070496;28;20211;-75
2022/01/06 07:30:04;;;;;;;33.23;5.03;;;26.20;71.50;;;;;;5064386;28;20219;-77
2022/01/06 07:32:31;;;;;;;34.27;5.63;;;26.20;72.10;;;;;;5073165;28;20180;-76
2022/01/06 07:34:59;;;;;;;24.83;4.87;;;26.20;71.80;;;;;;5069199;28;20179;-74
2022/01/06 07:37:26;;;;;;;25.87;5.57;;;26.30;71.80;;;;;;5074246;28;20249;-72
2022/01/06 07:39:55;;;;;;;33.80;5.47;;;26.30;72.20;;;;;;5067847;28;20186;-75
2022/01/06 07:42:22;;;;;;;30.37;5.03;;;26.30;72.50;;;;;;5071325;28;20266;-75
2022/01/06 07:44:49;;;;;;;30.20;5.20;;;26.20;72.60;;;;;;5067665;28;20190;-79
2022/01/06 07:47:18;;;;;;;30.37;5.00;;;26.00;73.00;;;;;;5069527;28;20599;-79
2022/01/06 07:49:45;;;;;;;26.50;5.50;;;25.90;73.80;;;;;;5078720;28;20228;-76
2022/01/06 07:52:13;;;;;;;29.30;6.17;;;25.90;74.10;;;;;;5073563;28;20203;-75
2022/01/06 07:54:40;;;;;;;33.73;6.07;;;26.00;74.00;;;;;;5070167;28;21549;-74
2022/01/06 07:57:08;;;;;;;32.47;5.47;;;25.90;74.10;;;;;;5071579;28;20194;-75
2022/01/06 07:59:35;;;;;;;24.90;5.33;;;25.80;74.50;;;;;;5063516;28;20582;-75
2022/01/06 08:02:03;;;;;;;32.77;4.87;;;25.70;75.00;;;;;;5073565;28;20660;-76
2022/01/06 08:04:30;;;;;;;34.13;5.70;;;25.90;74.30;;;;;;5059905;28;20183;-74
2022/01/06 08:06:58;;;;;;;32.53;5.97;;;25.90;74.10;;;;;;5068787;28;20187;-77
2022/01/06 08:09:25;;;;;;;29.07;5.23;;;25.80;74.40;;;;;;5076227;28;20333;-78
2022/01/06 08:11:56;;;;;;;31.13;5.07;;;25.70;74.90;;;;;;5072556;28;20183;-83
2022/01/06 08:14:23;;;;;;;25.93;5.10;;;25.50;75.50;;;;;;5067030;28;20187;-78
2022/01/06 08:16:50;;;;;;;23.53;4.80;;;25.40;76.10;;;;;;5072877;28;20191;-80
2022/01/06 08:19:18;;;;;;;26.63;5.73;;;25.40;76.10;;;;;;5064759;28;20191;-77
2022/01/06 08:21:45;;;;;;;23.63;4.50;;;25.50;75.60;;;;;;5072131;28;20179;-79
2022/01/06 08:24:13;;;;;;;36.37;5.43;;;25.40;76.20;;;;;;5071060;28;20191;-76
2022/01/06 08:26:40;;;;;;;35.63;5.30;;;25.30;76.40;;;;;;5066439;28;20186;-84
2022/01/06 08:29:08;;;;;;;31.67;4.60;;;25.20;76.70;;;;;;5069129;28;20210;-77
2022/01/06 08:31:35;;;;;;;27.37;5.80;;;25.00;77.10;;;;;;5069678;28;20245;-76
2022/01/06 08:34:03;;;;;;;43.90;6.27;;;25.00;77.30;;;;;;5065348;28;20639;-76
2022/01/06 08:36:30;;;;;;;36.37;6.27;;;24.90;77.40;;;;;;5069057;28;20193;-74
2022/01/06 08:38:57;;;;;;;25.60;4.50;;;25.00;77.50;;;;;;5064564;28;20217;-77
2022/01/06 08:41:24;;;;;;;32.03;5.20;;;25.00;77.60;;;;;;5066366;28;20189;-78
2022/01/06 08:43:52;;;;;;;28.67;5.17;;;24.90;77.80;;;;;;5068419;28;20545;-77
2022/01/06 08:46:19;;;;;;;32.93;6.10;;;25.00;78.00;;;;;;5070334;28;20187;-74
2022/01/06 08:48:46;;;;;;;36.93;7.77;;;24.80;77.80;;;;;;5065307;28;20604;-74
2022/01/06 08:51:14;;;;;;;28.57;6.13;;;24.80;78.00;;;;;;5067640;28;20911;-81
2022/01/06 08:53:41;;;;;;;31.50;6.43;;;24.80;78.20;;;;;;5069675;28;20563;-78
2022/01/06 08:56:09;;;;;;;30.43;5.43;;;24.80;78.00;;;;;;5069902;28;20186;-78
2022/01/06 08:58:37;;;;;;;33.43;5.83;;;24.80;78.20;;;;;;5069506;28;20179;-75
2022/01/06 09:01:04;;;;;;;35.93;6.10;;;24.80;78.60;;;;;;5069155;28;20517;-78
2022/01/06 09:03:31;;;;;;;32.83;4.93;;;24.80;78.70;;;;;;5072032;28;20172;-76
2022/01/06 09:05:58;;;;;;;33.80;5.47;;;24.70;79.10;;;;;;5075139;28;20260;-78
2022/01/06 09:08:26;;;;;;;35.67;5.50;;;24.70;79.10;;;;;;5075847;28;20183;-80
2022/01/06 09:10:53;;;;;;;35.07;5.43;;;24.70;79.30;;;;;;5071520;28;20234;-76
2022/01/06 09:13:20;;;;;;;33.03;5.60;;;24.60;79.30;;;;;;5078817;28;20183;-84
2022/01/06 09:15:48;;;;;;;27.73;4.83;;;24.60;79.50;;;;;;5073110;28;20259;-81
2022/01/06 09:18:15;;;;;;;32.57;5.63;;;24.60;80.30;;;;;;5074244;28;20176;-77
2022/01/06 09:20:43;;;;;;;34.43;5.50;;;24.50;81.40;;;;;;5074039;28;20179;-77
2022/01/06 09:23:10;;;;;;;37.57;6.40;;;24.40;81.20;;;;;;5072989;28;20176;-76
2022/01/06 09:25:37;;;;;;;36.47;5.37;;;24.40;81.60;;;;;;5071549;28;20691;-78
2022/01/06 09:28:05;;;;;;;35.13;5.20;;;24.40;81.30;;;;;;5073954;28;20225;-81
2022/01/06 09:30:32;;;;;;;34.77;5.43;;;24.40;81.40;;;;;;5071989;28;20692;-80
2022/01/06 09:32:59;;;;;;;31.20;5.47;;;24.40;81.70;;;;;;5071712;28;20274;-76
2022/01/06 09:35:27;;;;;;;42.87;5.67;;;24.30;83.00;;;;;;5068078;28;20193;-77
2022/01/06 09:37:54;;;;;;;30.10;5.50;;;24.30;85.30;;;;;;5070725;28;20231;-80
2022/01/06 09:40:21;;;;;;;35.33;5.47;;;24.00;86.60;;;;;;5074444;28;20191;-75
2022/01/06 09:42:49;;;;;;;37.83;6.07;;;23.70;87.60;;;;;;5064344;28;20237;-76
2022/01/06 09:45:16;;;;;;;43.73;6.20;;;23.70;87.90;;;;;;5072052;28;20222;-79
2022/01/06 09:47:44;;;;;;;36.43;5.30;;;23.60;88.30;;;;;;5074341;28;20254;-82
2022/01/06 09:50:13;;;;;;;43.77;5.83;;;23.70;87.20;;;;;;5069985;28;21406;-76
2022/01/06 09:52:41;;;;;;;36.57;6.03;;;23.70;87.30;;;;;;5069838;28;20176;-82
2022/01/06 09:55:09;;;;;;;33.67;6.43;;;23.70;87.30;;;;;;5077487;28;20183;-76
2022/01/06 09:57:37;;;;;;;37.03;5.87;;;23.70;87.50;;;;;;5071327;28;20186;-75
2022/01/06 10:00:08;;;;;;;33.00;5.83;;;23.70;86.50;;;;;;5067954;28;20294;-73
2022/01/06 10:02:38;;;;;;;35.60;5.80;;;23.70;86.30;;;;;;5069883;28;20210;-79
2022/01/06 10:05:07;;;;;;;28.73;5.43;;;23.70;84.70;;;;;;5069834;28;20364;-77
2022/01/06 10:07:39;;;;;;;28.07;5.37;;;23.70;84.80;;;;;;5070228;28;20194;-80
2022/01/06 10:10:12;;;;;;;28.13;4.83;;;23.70;85.10;;;;;;5076456;28;20258;-74
2022/01/06 10:12:41;;;;;;;39.30;6.00;;;23.70;84.70;;;;;;5072175;28;20672;-76
2022/01/06 10:15:23;;;;;;;36.47;8.93;;;23.70;85.10;;;;;;5069648;28;20183;-82
2022/01/06 10:17:51;;;;;;;31.50;6.53;;;23.60;85.00;;;;;;5077851;28;20190;-73
2022/01/06 10:20:21;;;;;;;32.73;5.23;;;23.80;84.20;;;;;;5068669;28;20183;-81
2022/01/06 10:22:51;;;;;;;28.90;4.47;;;24.00;83.20;;;;;;5080087;28;20205;-75
2022/01/06 10:25:20;;;;;;;35.97;5.47;;;24.10;83.10;;;;;;5080588;28;20175;-74
2022/01/06 10:27:49;;;;;;;31.40;5.03;;;24.10;83.20;;;;;;5067824;28;20194;-80
2022/01/06 10:30:17;;;;;;;34.03;6.13;;;24.10;82.70;;;;;;5071350;28;20244;-76
2022/01/06 10:32:44;;;;;;;29.17;5.43;;;24.20;82.70;;;;;;5066725;28;20252;-79
2022/01/06 10:35:17;;;;;;;36.07;5.63;;;24.00;83.20;;;;;;5069297;28;20244;-74
2022/01/06 10:37:48;;;;;;;32.60;5.47;;;23.90;83.60;;;;;;5073430;28;20224;-79
2022/01/06 10:40:22;;;;;;;44.87;6.43;;;23.90;83.90;;;;;;5067515;28;20191;-77
2022/01/06 10:42:52;;;;;;;31.37;5.30;;;23.90;84.00;;;;;;5070869;28;20175;-75
2022/01/06 10:45:25;;;;;;;31.63;4.93;;;23.80;83.20;;;;;;5067180;28;20183;-74
2022/01/06 10:47:55;;;;;;;31.87;5.57;;;23.80;83.40;;;;;;5069638;28;20183;-73
2022/01/06 10:50:22;;;;;;;30.07;4.63;;;23.80;83.60;;;;;;5071224;28;20714;-78
2022/01/06 10:52:52;;;;;;;28.47;5.07;;;23.80;83.00;;;;;;5071663;28;20172;-75
2022/01/06 10:55:25;;;;;;;30.03;5.63;;;23.80;82.70;;;;;;5072782;28;20177;-77
2022/01/06 10:57:57;;;;;;;41.40;5.40;;;23.80;82.40;;;;;;5074871;28;20207;-75
2022/01/06 11:00:28;;;;;;;33.43;5.13;;;23.90;82.80;;;;;;5063109;28;20180;-76
2022/01/06 11:03:15;;;;;;;30.80;5.90;;;23.90;82.70;;;;;;5072665;28;20187;-76
2022/01/06 11:05:51;;;;;;;30.13;5.03;;;23.80;83.00;;;;;;5076847;28;20652;-74
2022/01/06 11:08:21;;;;;;;31.53;5.77;;;23.90;83.20;;;;;;5074250;28;20232;-74
2022/01/06 11:13:36;;;;;;;28.13;4.60;;;24.30;81.60;;;;;;5072490;28;20175;-79
2022/01/06 11:16:05;;;;;;;29.37;4.50;;;24.20;81.40;;;;;;5071321;28;20576;-76
2022/01/06 11:18:33;;;;;;;27.47;5.43;;;24.20;80.40;;;;;;5068579;28;20182;-75
2022/01/06 11:21:23;;;;;;;28.97;5.50;;;24.20;80.60;;;;;;5068304;28;20702;-75
2022/01/06 11:24:02;;;;;;;28.53;5.00;;;24.00;80.70;;;;;;5069132;28;20190;-77
2022/01/06 11:26:29;;;;;;;24.57;4.27;;;23.90;81.40;;;;;;5080649;28;20175;-74
2022/01/06 11:28:59;;;;;;;29.90;5.60;;;23.90;81.80;;;;;;5085277;28;20179;-75
2022/01/06 11:31:35;;;;;;;42.00;5.90;;;23.90;82.00;;;;;;5080652;28;20633;-73
2022/01/06 11:34:18;;;;;;;30.13;5.00;;;23.90;82.40;;;;;;5081006;28;20170;-76
2022/01/06 11:36:47;;;;;;;28.97;5.63;;;23.80;82.80;;;;;;5087605;28;20219;-76
2022/01/06 11:39:41;;;;;;;29.47;4.87;;;23.80;82.90;;;;;;5088444;28;20222;-76
2022/01/06 11:42:25;;;;;;;37.43;5.43;;;23.80;83.10;;;;;;5079714;28;20190;-79
2022/01/06 11:44:58;;;;;;;36.30;5.67;;;23.80;83.20;;;;;;5073661;28;20576;-80
2022/01/06 11:47:39;;;;;;;36.10;5.60;;;23.80;83.40;;;;;;5070992;28;20239;-77
2022/01/06 11:50:11;;;;;;;43.43;6.33;;;23.90;82.70;;;;;;5063960;28;20306;-74
2022/01/06 11:52:58;;;;;;;35.87;5.53;;;24.00;82.00;;;;;;5069000;28;20176;-74
2022/01/06 11:55:33;;;;;;;28.00;5.37;;;24.10;81.90;;;;;;5071472;28;20601;-75
2022/01/06 11:58:19;;;;;;;36.40;5.47;;;24.10;82.00;;;;;;5074460;28;20183;-80
2022/01/06 12:00:59;;;;;;;33.57;6.17;;;24.00;82.00;;;;;;5070790;28;20704;-78
2022/01/06 12:03:38;;;;;;;24.20;4.83;;;23.90;82.40;;;;;;5068442;28;20645;-75
2022/01/06 12:06:12;;;;;;;41.23;5.20;;;23.90;82.90;;;;;;5068130;28;20443;-79
2022/01/06 12:08:43;;;;;;;29.87;4.77;;;23.90;83.00;;;;;;5067556;28;20201;-77
2022/01/06 12:11:40;;;;;;;34.40;5.20;;;23.80;83.10;;;;;;5069711;28;20230;-75
2022/01/06 12:14:09;;;;;;;29.20;5.13;;;23.80;83.60;;;;;;5059890;28;20202;-84
2022/01/06 12:16:41;;;;;;;34.13;4.97;;;23.80;83.90;;;;;;5071009;28;20179;-77
2022/01/06 12:19:20;;;;;;;32.53;5.27;;;23.80;84.10;;;;;;5068527;28;20566;-75
2022/01/06 12:21:48;;;;;;;36.90;5.57;;;23.70;84.40;;;;;;5071425;28;20691;-77
2022/01/06 12:24:17;;;;;;;26.57;5.23;;;23.70;84.80;;;;;;5063147;28;20183;-74
2022/01/06 12:26:46;;;;;;;34.30;5.63;;;23.60;84.80;;;;;;5065608;28;20186;-75
2022/01/06 12:29:19;;;;;;;35.90;5.93;;;23.70;84.60;;;;;;5070328;28;20206;-78
2022/01/06 12:31:48;;;;;;;36.60;6.27;;;23.80;84.10;;;;;;5064837;28;20210;-78
2022/01/06 12:34:16;;;;;;;33.90;6.37;;;24.00;83.60;;;;;;5070064;28;20433;-75
2022/01/06 12:36:46;;;;;;;34.57;6.37;;;24.00;83.40;;;;;;5066806;28;20227;-75
2022/01/06 12:39:17;;;;;;;35.33;5.60;;;23.90;83.50;;;;;;5064938;28;20232;-77
2022/01/06 12:41:46;;;;;;;33.50;5.97;;;23.80;84.00;;;;;;5073177;28;20186;-76
2022/01/06 12:44:20;;;;;;;37.63;5.17;;;23.80;84.00;;;;;;5069532;28;20260;-79
2022/01/06 12:46:47;;;;;;;39.43;5.73;;;23.80;84.30;;;;;;5070155;28;20175;-80
2022/01/06 12:49:15;;;;;;;37.93;5.63;;;23.80;84.20;;;;;;5073014;28;20554;-73
2022/01/06 12:51:45;;;;;;;37.07;6.00;;;23.80;84.30;;;;;;5075325;28;20220;-78
2022/01/06 12:54:17;;;;;;;31.73;6.03;;;23.80;84.20;;;;;;5071925;28;20186;-81